sensor_id;sensor_type;location;lat;lon;timestamp;P1;durP1;ratioP1;P2;durP2;ratioP2
16699;SDS011;8466;52.286;21.124;2022-11-20T00:01:51;65.87;;;51.10;;
16699;SDS011;8466;52.286;21.124;2022-11-20T00:04:20;75.07;;;66.37;;
16699;SDS011;8466;52.286;21.124;2022-11-20T00:06:48;81.37;;;72.37;;
16699;SDS011;8466;52.286;21.124;2022-11-20T00:09:17;93.33;;;84.40;;
16699;SDS011;8466;52.286;21.124;2022-11-20T00:11:46;94.53;;;85.70;;
16699;SDS011;8466;52.286;21.124;2022-11-20T00:14:15;97.87;;;88.77;;
16699;SDS011;8466;52.286;21.124;2022-11-20T00:16:45;96.77;;;87.40;;
16699;SDS011;8466;52.286;21.124;2022-11-20T00:19:14;91.60;;;82.93;;
16699;SDS011;8466;52.286;21.124;2022-11-20T00:21:44;92.37;;;83.07;;
16699;SDS011;8466;52.286;21.124;2022-11-20T00:24:13;83.07;;;74.60;;
16699;SDS011;8466;52.286;21.124;2022-11-20T00:26:41;81.20;;;72.50;;
16699;SDS011;8466;52.286;21.124;2022-11-20T00:29:10;74.40;;;63.33;;
16699;SDS011;8466;52.286;21.124;2022-11-20T00:31:39;72.00;;;58.07;;
16699;SDS011;8466;52.286;21.124;2022-11-20T00:34:10;75.53;;;60.30;;
16699;SDS011;8466;52.286;21.124;2022-11-20T00:36:39;74.87;;;58.67;;
16699;SDS011;8466;52.286;21.124;2022-11-20T00:39:07;75.43;;;57.10;;
16699;SDS011;8466;52.286;21.124;2022-11-20T00:41:36;69.93;;;51.00;;
16699;SDS011;8466;52.286;21.124;2022-11-20T00:44:05;63.87;;;44.53;;
16699;SDS011;8466;52.286;21.124;2022-11-20T00:46:33;70.77;;;50.63;;
16699;SDS011;8466;52.286;21.124;2022-11-20T00:49:02;64.77;;;46.07;;
16699;SDS011;8466;52.286;21.124;2022-11-20T00:51:32;73.50;;;44.90;;
16699;SDS011;8466;52.286;21.124;2022-11-20T00:54:01;68.20;;;46.13;;
16699;SDS011;8466;52.286;21.124;2022-11-20T00:56:30;67.47;;;49.43;;
16699;SDS011;8466;52.286;21.124;2022-11-20T00:58:59;67.73;;;52.20;;
16699;SDS011;8466;52.286;21.124;2022-11-20T01:01:28;67.17;;;53.47;;
16699;SDS011;8466;52.286;21.124;2022-11-20T01:03:58;68.97;;;60.23;;
16699;SDS011;8466;52.286;21.124;2022-11-20T01:06:28;68.13;;;60.33;;
16699;SDS011;8466;52.286;21.124;2022-11-20T01:08:59;82.50;;;73.87;;
16699;SDS011;8466;52.286;21.124;2022-11-20T01:11:31;83.67;;;75.37;;
16699;SDS011;8466;52.286;21.124;2022-11-20T01:14:02;80.33;;;72.23;;
16699;SDS011;8466;52.286;21.124;2022-11-20T01:16:33;96.20;;;87.50;;
16699;SDS011;8466;52.286;21.124;2022-11-20T01:19:03;120.73;;;110.17;;
16699;SDS011;8466;52.286;21.124;2022-11-20T01:21:33;119.50;;;108.97;;
16699;SDS011;8466;52.286;21.124;2022-11-20T01:24:05;110.80;;;101.20;;
16699;SDS011;8466;52.286;21.124;2022-11-20T01:26:36;94.90;;;85.90;;
16699;SDS011;8466;52.286;21.124;2022-11-20T01:29:07;82.53;;;74.30;;
16699;SDS011;8466;52.286;21.124;2022-11-20T01:31:40;65.10;;;52.53;;
16699;SDS011;8466;52.286;21.124;2022-11-20T01:34:16;65.97;;;57.40;;
16699;SDS011;8466;52.286;21.124;2022-11-20T01:36:46;66.40;;;54.60;;
16699;SDS011;8466;52.286;21.124;2022-11-20T01:39:17;68.53;;;56.63;;
16699;SDS011;8466;52.286;21.124;2022-11-20T01:41:48;68.33;;;55.77;;
16699;SDS011;8466;52.286;21.124;2022-11-20T01:44:45;71.10;;;55.07;;
16699;SDS011;8466;52.286;21.124;2022-11-20T01:47:19;81.37;;;73.27;;
16699;SDS011;8466;52.286;21.124;2022-11-20T01:49:54;106.90;;;96.70;;
16699;SDS011;8466;52.286;21.124;2022-11-20T01:52:28;108.00;;;97.57;;
16699;SDS011;8466;52.286;21.124;2022-11-20T01:55:05;119.93;;;108.87;;
16699;SDS011;8466;52.286;21.124;2022-11-20T01:57:37;117.27;;;106.50;;
16699;SDS011;8466;52.286;21.124;2022-11-20T02:00:07;118.53;;;107.50;;
16699;SDS011;8466;52.286;21.124;2022-11-20T02:02:37;114.73;;;104.33;;
16699;SDS011;8466;52.286;21.124;2022-11-20T02:05:11;106.43;;;96.57;;
16699;SDS011;8466;52.286;21.124;2022-11-20T02:07:45;97.23;;;88.03;;
16699;SDS011;8466;52.286;21.124;2022-11-20T02:10:20;94.10;;;85.53;;
16699;SDS011;8466;52.286;21.124;2022-11-20T02:12:49;103.17;;;93.87;;
16699;SDS011;8466;52.286;21.124;2022-11-20T02:15:35;91.57;;;83.37;;
16699;SDS011;8466;52.286;21.124;2022-11-20T02:18:06;98.80;;;89.67;;
16699;SDS011;8466;52.286;21.124;2022-11-20T02:20:37;104.27;;;95.07;;
16699;SDS011;8466;52.286;21.124;2022-11-20T02:23:08;116.03;;;106.47;;
16699;SDS011;8466;52.286;21.124;2022-11-20T02:25:41;108.97;;;99.63;;
16699;SDS011;8466;52.286;21.124;2022-11-20T02:28:11;102.07;;;92.77;;
16699;SDS011;8466;52.286;21.124;2022-11-20T02:30:40;93.03;;;84.07;;
16699;SDS011;8466;52.286;21.124;2022-11-20T02:33:08;82.13;;;73.83;;
16699;SDS011;8466;52.286;21.124;2022-11-20T02:35:44;81.07;;;73.17;;
16699;SDS011;8466;52.286;21.124;2022-11-20T02:38:13;78.20;;;70.43;;
16699;SDS011;8466;52.286;21.124;2022-11-20T02:40:44;77.53;;;69.67;;
16699;SDS011;8466;52.286;21.124;2022-11-20T02:43:19;70.57;;;58.40;;
16699;SDS011;8466;52.286;21.124;2022-11-20T02:45:48;64.70;;;51.70;;
16699;SDS011;8466;52.286;21.124;2022-11-20T02:48:16;61.00;;;51.37;;
16699;SDS011;8466;52.286;21.124;2022-11-20T02:50:45;64.90;;;55.70;;
16699;SDS011;8466;52.286;21.124;2022-11-20T02:53:14;63.97;;;55.53;;
16699;SDS011;8466;52.286;21.124;2022-11-20T02:55:44;66.30;;;57.07;;
16699;SDS011;8466;52.286;21.124;2022-11-20T02:58:13;64.77;;;53.77;;
16699;SDS011;8466;52.286;21.124;2022-11-20T03:00:42;60.87;;;47.97;;
16699;SDS011;8466;52.286;21.124;2022-11-20T03:03:10;62.50;;;51.80;;
16699;SDS011;8466;52.286;21.124;2022-11-20T03:05:39;59.53;;;47.87;;
16699;SDS011;8466;52.286;21.124;2022-11-20T03:08:07;62.60;;;49.13;;
16699;SDS011;8466;52.286;21.124;2022-11-20T03:10:36;60.50;;;47.97;;
16699;SDS011;8466;52.286;21.124;2022-11-20T03:13:07;60.60;;;47.67;;
16699;SDS011;8466;52.286;21.124;2022-11-20T03:15:36;65.07;;;48.77;;
16699;SDS011;8466;52.286;21.124;2022-11-20T03:18:04;64.30;;;46.30;;
16699;SDS011;8466;52.286;21.124;2022-11-20T03:20:33;64.97;;;47.97;;
16699;SDS011;8466;52.286;21.124;2022-11-20T03:23:02;62.27;;;45.70;;
16699;SDS011;8466;52.286;21.124;2022-11-20T03:25:30;55.03;;;37.67;;
16699;SDS011;8466;52.286;21.124;2022-11-20T03:28:00;52.77;;;35.13;;
16699;SDS011;8466;52.286;21.124;2022-11-20T03:30:30;58.70;;;35.67;;
16699;SDS011;8466;52.286;21.124;2022-11-20T03:32:58;50.57;;;33.93;;
16699;SDS011;8466;52.286;21.124;2022-11-20T03:35:27;57.57;;;34.90;;
16699;SDS011;8466;52.286;21.124;2022-11-20T03:37:57;60.03;;;33.97;;
16699;SDS011;8466;52.286;21.124;2022-11-20T03:40:26;56.87;;;34.20;;
16699;SDS011;8466;52.286;21.124;2022-11-20T03:42:54;53.23;;;33.03;;
16699;SDS011;8466;52.286;21.124;2022-11-20T03:45:23;53.47;;;34.97;;
16699;SDS011;8466;52.286;21.124;2022-11-20T03:47:54;54.37;;;34.97;;
16699;SDS011;8466;52.286;21.124;2022-11-20T03:50:22;57.63;;;35.30;;
16699;SDS011;8466;52.286;21.124;2022-11-20T03:52:51;55.67;;;35.57;;
16699;SDS011;8466;52.286;21.124;2022-11-20T03:55:20;55.10;;;34.77;;
16699;SDS011;8466;52.286;21.124;2022-11-20T03:57:49;59.13;;;37.77;;
16699;SDS011;8466;52.286;21.124;2022-11-20T04:00:17;55.33;;;35.93;;
16699;SDS011;8466;52.286;21.124;2022-11-20T04:02:46;54.20;;;34.83;;
16699;SDS011;8466;52.286;21.124;2022-11-20T04:05:17;58.37;;;34.57;;
16699;SDS011;8466;52.286;21.124;2022-11-20T04:07:45;59.37;;;35.60;;
16699;SDS011;8466;52.286;21.124;2022-11-20T04:10:14;57.20;;;34.83;;
16699;SDS011;8466;52.286;21.124;2022-11-20T04:12:43;53.33;;;34.47;;
16699;SDS011;8466;52.286;21.124;2022-11-20T04:15:11;55.10;;;35.53;;
16699;SDS011;8466;52.286;21.124;2022-11-20T04:17:40;53.27;;;35.03;;
16699;SDS011;8466;52.286;21.124;2022-11-20T04:20:09;58.33;;;38.60;;
16699;SDS011;8466;52.286;21.124;2022-11-20T04:22:40;56.20;;;37.47;;
16699;SDS011;8466;52.286;21.124;2022-11-20T04:25:09;59.03;;;37.93;;
16699;SDS011;8466;52.286;21.124;2022-11-20T04:27:37;61.80;;;40.33;;
16699;SDS011;8466;52.286;21.124;2022-11-20T04:30:06;59.03;;;38.30;;
16699;SDS011;8466;52.286;21.124;2022-11-20T04:32:36;58.17;;;38.50;;
16699;SDS011;8466;52.286;21.124;2022-11-20T04:35:05;53.37;;;34.50;;
16699;SDS011;8466;52.286;21.124;2022-11-20T04:37:34;55.43;;;36.00;;
16699;SDS011;8466;52.286;21.124;2022-11-20T04:40:05;50.70;;;33.97;;
16699;SDS011;8466;52.286;21.124;2022-11-20T04:42:34;52.47;;;35.07;;
16699;SDS011;8466;52.286;21.124;2022-11-20T04:45:03;53.97;;;34.50;;
16699;SDS011;8466;52.286;21.124;2022-11-20T04:47:32;55.03;;;32.27;;
16699;SDS011;8466;52.286;21.124;2022-11-20T04:50:01;50.93;;;33.00;;
16699;SDS011;8466;52.286;21.124;2022-11-20T04:52:30;56.43;;;33.50;;
16699;SDS011;8466;52.286;21.124;2022-11-20T04:54:58;52.57;;;32.30;;
16699;SDS011;8466;52.286;21.124;2022-11-20T04:57:28;50.03;;;32.30;;
16699;SDS011;8466;52.286;21.124;2022-11-20T04:59:57;55.37;;;34.93;;
16699;SDS011;8466;52.286;21.124;2022-11-20T05:02:26;51.53;;;31.63;;
16699;SDS011;8466;52.286;21.124;2022-11-20T05:04:54;51.73;;;33.43;;
16699;SDS011;8466;52.286;21.124;2022-11-20T05:07:23;54.30;;;32.37;;
16699;SDS011;8466;52.286;21.124;2022-11-20T05:09:52;49.27;;;32.47;;
16699;SDS011;8466;52.286;21.124;2022-11-20T05:12:20;50.47;;;30.77;;
16699;SDS011;8466;52.286;21.124;2022-11-20T05:14:50;54.93;;;32.07;;
16699;SDS011;8466;52.286;21.124;2022-11-20T05:17:19;50.90;;;32.07;;
16699;SDS011;8466;52.286;21.124;2022-11-20T05:19:48;54.00;;;32.00;;
16699;SDS011;8466;52.286;21.124;2022-11-20T05:22:18;57.43;;;33.20;;
16699;SDS011;8466;52.286;21.124;2022-11-20T05:24:47;51.73;;;32.53;;
16699;SDS011;8466;52.286;21.124;2022-11-20T05:27:16;49.40;;;31.23;;
16699;SDS011;8466;52.286;21.124;2022-11-20T05:29:44;50.60;;;33.67;;
16699;SDS011;8466;52.286;21.124;2022-11-20T05:32:14;50.90;;;32.73;;
16699;SDS011;8466;52.286;21.124;2022-11-20T05:34:43;55.83;;;33.53;;
16699;SDS011;8466;52.286;21.124;2022-11-20T05:37:12;50.47;;;31.97;;
16699;SDS011;8466;52.286;21.124;2022-11-20T05:39:40;51.83;;;31.73;;
16699;SDS011;8466;52.286;21.124;2022-11-20T05:42:09;50.17;;;31.43;;
16699;SDS011;8466;52.286;21.124;2022-11-20T05:44:55;50.10;;;32.57;;
16699;SDS011;8466;52.286;21.124;2022-11-20T05:47:26;50.50;;;32.47;;
16699;SDS011;8466;52.286;21.124;2022-11-20T05:49:55;55.33;;;33.63;;
16699;SDS011;8466;52.286;21.124;2022-11-20T05:52:24;49.90;;;31.10;;
16699;SDS011;8466;52.286;21.124;2022-11-20T05:54:52;50.53;;;33.43;;
16699;SDS011;8466;52.286;21.124;2022-11-20T05:57:21;53.23;;;33.23;;
16699;SDS011;8466;52.286;21.124;2022-11-20T05:59:50;52.47;;;33.30;;
16699;SDS011;8466;52.286;21.124;2022-11-20T06:02:18;48.90;;;32.97;;
16699;SDS011;8466;52.286;21.124;2022-11-20T06:04:49;50.23;;;32.90;;
16699;SDS011;8466;52.286;21.124;2022-11-20T06:07:17;52.13;;;32.90;;
16699;SDS011;8466;52.286;21.124;2022-11-20T06:09:46;52.97;;;33.70;;
16699;SDS011;8466;52.286;21.124;2022-11-20T06:12:16;56.00;;;34.50;;
16699;SDS011;8466;52.286;21.124;2022-11-20T06:14:44;77.75;;;70.22;;
16699;SDS011;8466;52.286;21.124;2022-11-20T06:17:13;51.57;;;35.23;;
16699;SDS011;8466;52.286;21.124;2022-11-20T06:19:42;56.83;;;35.13;;
16699;SDS011;8466;52.286;21.124;2022-11-20T06:22:12;53.43;;;35.23;;
16699;SDS011;8466;52.286;21.124;2022-11-20T06:24:41;58.13;;;35.90;;
16699;SDS011;8466;52.286;21.124;2022-11-20T06:27:09;54.90;;;37.73;;
16699;SDS011;8466;52.286;21.124;2022-11-20T06:29:38;54.77;;;40.43;;
16699;SDS011;8466;52.286;21.124;2022-11-20T06:32:07;49.67;;;36.53;;
16699;SDS011;8466;52.286;21.124;2022-11-20T06:34:35;51.87;;;34.67;;
16699;SDS011;8466;52.286;21.124;2022-11-20T06:37:04;59.97;;;37.13;;
16699;SDS011;8466;52.286;21.124;2022-11-20T06:39:34;51.30;;;34.30;;
16699;SDS011;8466;52.286;21.124;2022-11-20T06:42:03;53.00;;;35.20;;
16699;SDS011;8466;52.286;21.124;2022-11-20T06:44:31;52.20;;;36.63;;
16699;SDS011;8466;52.286;21.124;2022-11-20T06:47:00;57.03;;;38.00;;
16699;SDS011;8466;52.286;21.124;2022-11-20T06:49:29;56.33;;;37.77;;
16699;SDS011;8466;52.286;21.124;2022-11-20T06:51:58;55.83;;;44.92;;
16699;SDS011;8466;52.286;21.124;2022-11-20T06:54:26;57.20;;;38.47;;
16699;SDS011;8466;52.286;21.124;2022-11-20T06:56:57;57.30;;;35.73;;
16699;SDS011;8466;52.286;21.124;2022-11-20T06:59:25;54.73;;;40.97;;
16699;SDS011;8466;52.286;21.124;2022-11-20T07:01:54;111.63;;;101.88;;
16699;SDS011;8466;52.286;21.124;2022-11-20T07:04:22;52.80;;;36.93;;
16699;SDS011;8466;52.286;21.124;2022-11-20T07:06:51;53.77;;;34.03;;
16699;SDS011;8466;52.286;21.124;2022-11-20T07:09:20;52.07;;;33.93;;
16699;SDS011;8466;52.286;21.124;2022-11-20T07:11:49;54.00;;;34.23;;
16699;SDS011;8466;52.286;21.124;2022-11-20T07:14:19;50.97;;;32.90;;
16699;SDS011;8466;52.286;21.124;2022-11-20T07:16:48;54.00;;;33.63;;
16699;SDS011;8466;52.286;21.124;2022-11-20T07:19:17;55.77;;;35.93;;
16699;SDS011;8466;52.286;21.124;2022-11-20T07:21:46;64.60;;;39.03;;
16699;SDS011;8466;52.286;21.124;2022-11-20T07:24:15;68.27;;;40.90;;
16699;SDS011;8466;52.286;21.124;2022-11-20T07:26:45;61.27;;;37.97;;
16699;SDS011;8466;52.286;21.124;2022-11-20T07:29:15;59.70;;;37.70;;
16699;SDS011;8466;52.286;21.124;2022-11-20T07:31:46;56.07;;;35.97;;
16699;SDS011;8466;52.286;21.124;2022-11-20T07:34:15;54.17;;;34.60;;
16699;SDS011;8466;52.286;21.124;2022-11-20T07:36:43;52.60;;;33.80;;
16699;SDS011;8466;52.286;21.124;2022-11-20T07:39:12;51.87;;;34.67;;
16699;SDS011;8466;52.286;21.124;2022-11-20T07:41:41;68.05;;;61.55;;
16699;SDS011;8466;52.286;21.124;2022-11-20T07:44:10;241.70;;;67.63;;
16699;SDS011;8466;52.286;21.124;2022-11-20T07:46:39;51.60;;;34.77;;
16699;SDS011;8466;52.286;21.124;2022-11-20T07:49:12;46.37;;;30.70;;
16699;SDS011;8466;52.286;21.124;2022-11-20T07:51:40;48.67;;;31.43;;
16699;SDS011;8466;52.286;21.124;2022-11-20T07:54:12;50.30;;;31.43;;
16699;SDS011;8466;52.286;21.124;2022-11-20T07:56:40;45.83;;;32.33;;
16699;SDS011;8466;52.286;21.124;2022-11-20T07:59:09;41.87;;;30.70;;
16699;SDS011;8466;52.286;21.124;2022-11-20T08:01:38;48.57;;;33.10;;
16699;SDS011;8466;52.286;21.124;2022-11-20T08:04:08;46.07;;;30.70;;
16699;SDS011;8466;52.286;21.124;2022-11-20T08:06:38;45.87;;;30.20;;
16699;SDS011;8466;52.286;21.124;2022-11-20T08:09:07;45.87;;;31.37;;
16699;SDS011;8466;52.286;21.124;2022-11-20T08:11:36;51.53;;;34.17;;
16699;SDS011;8466;52.286;21.124;2022-11-20T08:14:23;46.33;;;31.83;;
16699;SDS011;8466;52.286;21.124;2022-11-20T08:16:53;42.83;;;30.47;;
16699;SDS011;8466;52.286;21.124;2022-11-20T08:19:22;56.60;;;50.57;;
16699;SDS011;8466;52.286;21.124;2022-11-20T08:21:53;73.17;;;66.03;;
16699;SDS011;8466;52.286;21.124;2022-11-20T08:24:23;70.33;;;62.97;;
16699;SDS011;8466;52.286;21.124;2022-11-20T08:26:53;59.73;;;52.53;;
16699;SDS011;8466;52.286;21.124;2022-11-20T08:29:21;65.53;;;58.80;;
16699;SDS011;8466;52.286;21.124;2022-11-20T08:31:50;65.10;;;58.27;;
16699;SDS011;8466;52.286;21.124;2022-11-20T08:34:19;65.87;;;59.20;;
16699;SDS011;8466;52.286;21.124;2022-11-20T08:36:48;67.23;;;60.47;;
16699;SDS011;8466;52.286;21.124;2022-11-20T08:39:18;79.33;;;71.90;;
16699;SDS011;8466;52.286;21.124;2022-11-20T08:41:48;85.10;;;77.37;;
16699;SDS011;8466;52.286;21.124;2022-11-20T08:44:17;71.57;;;64.27;;
16699;SDS011;8466;52.286;21.124;2022-11-20T08:46:47;62.83;;;56.13;;
16699;SDS011;8466;52.286;21.124;2022-11-20T08:49:18;61.03;;;54.60;;
16699;SDS011;8466;52.286;21.124;2022-11-20T08:51:48;65.93;;;59.13;;
16699;SDS011;8466;52.286;21.124;2022-11-20T08:54:21;75.70;;;68.77;;
16699;SDS011;8466;52.286;21.124;2022-11-20T08:56:50;69.90;;;63.37;;
16699;SDS011;8466;52.286;21.124;2022-11-20T08:59:18;70.10;;;63.70;;
16699;SDS011;8466;52.286;21.124;2022-11-20T09:02:10;73.30;;;66.50;;
16699;SDS011;8466;52.286;21.124;2022-11-20T09:04:38;69.13;;;62.27;;
16699;SDS011;8466;52.286;21.124;2022-11-20T09:07:07;62.97;;;56.83;;
16699;SDS011;8466;52.286;21.124;2022-11-20T09:09:38;72.37;;;65.63;;
16699;SDS011;8466;52.286;21.124;2022-11-20T09:12:12;73.67;;;66.97;;
16699;SDS011;8466;52.286;21.124;2022-11-20T09:14:41;75.07;;;68.13;;
16699;SDS011;8466;52.286;21.124;2022-11-20T09:17:20;109.90;;;101.07;;
16699;SDS011;8466;52.286;21.124;2022-11-20T09:19:49;105.40;;;97.00;;
16699;SDS011;8466;52.286;21.124;2022-11-20T09:22:17;72.37;;;65.63;;
16699;SDS011;8466;52.286;21.124;2022-11-20T09:24:47;64.23;;;58.07;;
16699;SDS011;8466;52.286;21.124;2022-11-20T09:27:16;56.23;;;50.47;;
16699;SDS011;8466;52.286;21.124;2022-11-20T09:29:48;59.70;;;54.10;;
16699;SDS011;8466;52.286;21.124;2022-11-20T09:32:17;55.90;;;50.00;;
16699;SDS011;8466;52.286;21.124;2022-11-20T09:34:46;53.17;;;47.77;;
16699;SDS011;8466;52.286;21.124;2022-11-20T09:37:16;57.60;;;51.70;;
16699;SDS011;8466;52.286;21.124;2022-11-20T09:39:44;64.90;;;58.60;;
16699;SDS011;8466;52.286;21.124;2022-11-20T09:48:00;52.10;;;42.80;;
16699;SDS011;8466;52.286;21.124;2022-11-20T09:50:55;51.60;;;41.80;;
16699;SDS011;8466;52.286;21.124;2022-11-20T09:53:36;52.13;;;41.87;;
16699;SDS011;8466;52.286;21.124;2022-11-20T09:56:19;50.57;;;41.90;;
16699;SDS011;8466;52.286;21.124;2022-11-20T09:58:53;54.20;;;42.17;;
16699;SDS011;8466;52.286;21.124;2022-11-20T10:01:29;49.83;;;40.37;;
16699;SDS011;8466;52.286;21.124;2022-11-20T10:04:02;50.10;;;40.17;;
16699;SDS011;8466;52.286;21.124;2022-11-20T10:06:44;48.10;;;39.13;;
16699;SDS011;8466;52.286;21.124;2022-11-20T10:09:43;48.37;;;36.00;;
16699;SDS011;8466;52.286;21.124;2022-11-20T10:12:20;47.47;;;40.73;;
16699;SDS011;8466;52.286;21.124;2022-11-20T10:14:58;51.47;;;42.23;;
16699;SDS011;8466;52.286;21.124;2022-11-20T10:17:54;49.57;;;39.80;;
16699;SDS011;8466;52.286;21.124;2022-11-20T10:20:40;44.53;;;35.73;;
16699;SDS011;8466;52.286;21.124;2022-11-20T10:23:29;46.17;;;40.93;;
16699;SDS011;8466;52.286;21.124;2022-11-20T10:26:21;48.30;;;39.43;;
16699;SDS011;8466;52.286;21.124;2022-11-20T10:29:05;50.80;;;37.47;;
16699;SDS011;8466;52.286;21.124;2022-11-20T10:31:41;48.83;;;39.93;;
16699;SDS011;8466;52.286;21.124;2022-11-20T10:34:16;48.07;;;41.03;;
16699;SDS011;8466;52.286;21.124;2022-11-20T10:36:51;44.53;;;38.50;;
16699;SDS011;8466;52.286;21.124;2022-11-20T10:39:26;46.80;;;40.50;;
16699;SDS011;8466;52.286;21.124;2022-11-20T10:42:03;46.57;;;40.80;;
16699;SDS011;8466;52.286;21.124;2022-11-20T10:44:39;48.03;;;40.37;;
16699;SDS011;8466;52.286;21.124;2022-11-20T10:47:34;46.73;;;40.57;;
16699;SDS011;8466;52.286;21.124;2022-11-20T10:50:09;46.10;;;41.20;;
16699;SDS011;8466;52.286;21.124;2022-11-20T10:52:59;51.10;;;43.13;;
16699;SDS011;8466;52.286;21.124;2022-11-20T10:55:48;51.30;;;46.28;;
16699;SDS011;8466;52.286;21.124;2022-11-20T10:58:33;50.70;;;44.67;;
16699;SDS011;8466;52.286;21.124;2022-11-20T11:01:14;42.53;;;37.83;;
16699;SDS011;8466;52.286;21.124;2022-11-20T11:03:52;48.33;;;43.07;;
16699;SDS011;8466;52.286;21.124;2022-11-20T11:06:25;46.37;;;41.43;;
16699;SDS011;8466;52.286;21.124;2022-11-20T11:09:06;44.57;;;39.67;;
16699;SDS011;8466;52.286;21.124;2022-11-20T11:11:48;87.45;;;80.55;;
16699;SDS011;8466;52.286;21.124;2022-11-20T11:14:41;44.10;;;39.23;;
16699;SDS011;8466;52.286;21.124;2022-11-20T11:17:23;47.33;;;42.30;;
16699;SDS011;8466;52.286;21.124;2022-11-20T11:20:15;42.63;;;36.83;;
16699;SDS011;8466;52.286;21.124;2022-11-20T11:22:55;44.87;;;38.30;;
16699;SDS011;8466;52.286;21.124;2022-11-20T11:25:28;44.97;;;38.50;;
16699;SDS011;8466;52.286;21.124;2022-11-20T11:28:02;46.13;;;39.83;;
16699;SDS011;8466;52.286;21.124;2022-11-20T11:30:41;48.07;;;41.50;;
16699;SDS011;8466;52.286;21.124;2022-11-20T11:33:18;46.60;;;41.13;;
16699;SDS011;8466;52.286;21.124;2022-11-20T11:35:53;47.00;;;40.17;;
16699;SDS011;8466;52.286;21.124;2022-11-20T11:38:28;46.73;;;40.13;;
16699;SDS011;8466;52.286;21.124;2022-11-20T11:41:04;48.23;;;39.97;;
16699;SDS011;8466;52.286;21.124;2022-11-20T11:43:40;49.63;;;43.13;;
16699;SDS011;8466;52.286;21.124;2022-11-20T11:46:50;46.50;;;39.63;;
16699;SDS011;8466;52.286;21.124;2022-11-20T11:49:26;45.87;;;40.77;;
16699;SDS011;8466;52.286;21.124;2022-11-20T11:52:04;47.17;;;42.17;;
16699;SDS011;8466;52.286;21.124;2022-11-20T11:54:40;46.43;;;38.83;;
16699;SDS011;8466;52.286;21.124;2022-11-20T11:57:15;44.87;;;39.00;;
16699;SDS011;8466;52.286;21.124;2022-11-20T11:59:54;50.10;;;42.90;;
16699;SDS011;8466;52.286;21.124;2022-11-20T12:02:35;46.50;;;41.60;;
16699;SDS011;8466;52.286;21.124;2022-11-20T12:05:14;51.70;;;46.67;;
16699;SDS011;8466;52.286;21.124;2022-11-20T12:07:55;57.70;;;52.03;;
16699;SDS011;8466;52.286;21.124;2022-11-20T12:10:38;48.80;;;43.50;;
16699;SDS011;8466;52.286;21.124;2022-11-20T12:13:14;47.07;;;41.97;;
16699;SDS011;8466;52.286;21.124;2022-11-20T12:15:53;47.63;;;41.88;;
16699;SDS011;8466;52.286;21.124;2022-11-20T12:18:25;50.60;;;42.03;;
16699;SDS011;8466;52.286;21.124;2022-11-20T12:21:00;172.80;;;160.63;;
16699;SDS011;8466;52.286;21.124;2022-11-20T12:23:42;60.90;;;54.60;;
16699;SDS011;8466;52.286;21.124;2022-11-20T12:26:22;58.53;;;46.23;;
16699;SDS011;8466;52.286;21.124;2022-11-20T12:29:04;55.00;;;49.13;;
16699;SDS011;8466;52.286;21.124;2022-11-20T12:31:45;54.60;;;48.57;;
16699;SDS011;8466;52.286;21.124;2022-11-20T12:34:32;54.70;;;47.87;;
16699;SDS011;8466;52.286;21.124;2022-11-20T12:37:15;48.63;;;43.33;;
16699;SDS011;8466;52.286;21.124;2022-11-20T12:39:55;51.80;;;44.47;;
16699;SDS011;8466;52.286;21.124;2022-11-20T12:45:46;49.10;;;42.33;;
16699;SDS011;8466;52.286;21.124;2022-11-20T12:48:50;45.20;;;40.13;;
16699;SDS011;8466;52.286;21.124;2022-11-20T12:51:39;49.27;;;41.83;;
16699;SDS011;8466;52.286;21.124;2022-11-20T12:54:36;51.27;;;45.77;;
16699;SDS011;8466;52.286;21.124;2022-11-20T12:57:41;51.50;;;44.47;;
16699;SDS011;8466;52.286;21.124;2022-11-20T13:00:17;46.00;;;40.60;;
16699;SDS011;8466;52.286;21.124;2022-11-20T13:05:59;47.30;;;42.13;;
16699;SDS011;8466;52.286;21.124;2022-11-20T13:08:38;49.93;;;44.23;;
16699;SDS011;8466;52.286;21.124;2022-11-20T13:11:11;50.87;;;45.30;;
16699;SDS011;8466;52.286;21.124;2022-11-20T13:13:48;47.53;;;42.33;;
16699;SDS011;8466;52.286;21.124;2022-11-20T13:16:38;49.57;;;42.57;;
16699;SDS011;8466;52.286;21.124;2022-11-20T13:19:17;49.47;;;43.90;;
16699;SDS011;8466;52.286;21.124;2022-11-20T13:21:47;52.17;;;46.57;;
16699;SDS011;8466;52.286;21.124;2022-11-20T13:24:20;48.63;;;43.47;;
16699;SDS011;8466;52.286;21.124;2022-11-20T13:27:16;50.83;;;45.40;;
16699;SDS011;8466;52.286;21.124;2022-11-20T13:29:59;48.73;;;43.63;;
16699;SDS011;8466;52.286;21.124;2022-11-20T13:32:47;50.37;;;44.93;;
16699;SDS011;8466;52.286;21.124;2022-11-20T13:35:24;47.83;;;42.80;;
16699;SDS011;8466;52.286;21.124;2022-11-20T13:38:04;52.80;;;47.50;;
16699;SDS011;8466;52.286;21.124;2022-11-20T13:40:35;49.70;;;44.27;;
16699;SDS011;8466;52.286;21.124;2022-11-20T13:43:18;52.80;;;47.70;;
16699;SDS011;8466;52.286;21.124;2022-11-20T13:45:58;51.03;;;45.50;;
16699;SDS011;8466;52.286;21.124;2022-11-20T13:48:29;54.80;;;49.10;;
16699;SDS011;8466;52.286;21.124;2022-11-20T13:51:14;57.73;;;51.83;;
16699;SDS011;8466;52.286;21.124;2022-11-20T13:54:04;52.33;;;47.13;;
16699;SDS011;8466;52.286;21.124;2022-11-20T13:56:59;62.50;;;54.30;;
16699;SDS011;8466;52.286;21.124;2022-11-20T13:59:45;59.80;;;52.40;;
16699;SDS011;8466;52.286;21.124;2022-11-20T14:02:25;72.07;;;60.40;;
16699;SDS011;8466;52.286;21.124;2022-11-20T14:04:58;99.67;;;76.10;;
16699;SDS011;8466;52.286;21.124;2022-11-20T14:07:31;69.33;;;60.87;;
16699;SDS011;8466;52.286;21.124;2022-11-20T14:10:04;51.53;;;45.77;;
16699;SDS011;8466;52.286;21.124;2022-11-20T14:12:34;48.70;;;39.43;;
16699;SDS011;8466;52.286;21.124;2022-11-20T14:15:04;48.27;;;38.63;;
16699;SDS011;8466;52.286;21.124;2022-11-20T14:17:35;56.80;;;42.30;;
16699;SDS011;8466;52.286;21.124;2022-11-20T14:20:05;64.57;;;48.97;;
16699;SDS011;8466;52.286;21.124;2022-11-20T14:22:47;65.57;;;48.93;;
16699;SDS011;8466;52.286;21.124;2022-11-20T14:25:20;69.70;;;50.00;;
16699;SDS011;8466;52.286;21.124;2022-11-20T14:27:53;77.40;;;56.00;;
16699;SDS011;8466;52.286;21.124;2022-11-20T14:30:26;78.93;;;60.50;;
16699;SDS011;8466;52.286;21.124;2022-11-20T14:33:00;64.20;;;52.00;;
16699;SDS011;8466;52.286;21.124;2022-11-20T14:35:31;60.90;;;51.40;;
16699;SDS011;8466;52.286;21.124;2022-11-20T14:38:07;57.63;;;45.57;;
16699;SDS011;8466;52.286;21.124;2022-11-20T14:40:41;66.40;;;49.17;;
16699;SDS011;8466;52.286;21.124;2022-11-20T14:43:21;62.13;;;49.67;;
16699;SDS011;8466;52.286;21.124;2022-11-20T14:45:57;62.73;;;47.63;;
16699;SDS011;8466;52.286;21.124;2022-11-20T14:48:30;69.27;;;49.27;;
16699;SDS011;8466;52.286;21.124;2022-11-20T14:51:04;80.27;;;52.27;;
16699;SDS011;8466;52.286;21.124;2022-11-20T14:53:33;75.20;;;52.50;;
16699;SDS011;8466;52.286;21.124;2022-11-20T14:56:02;76.30;;;53.00;;
16699;SDS011;8466;52.286;21.124;2022-11-20T14:58:32;65.73;;;49.50;;
16699;SDS011;8466;52.286;21.124;2022-11-20T15:01:03;65.13;;;49.97;;
16699;SDS011;8466;52.286;21.124;2022-11-20T15:03:36;66.67;;;53.13;;
16699;SDS011;8466;52.286;21.124;2022-11-20T15:06:06;65.70;;;50.37;;
16699;SDS011;8466;52.286;21.124;2022-11-20T15:08:38;60.70;;;52.00;;